Time;durP1;ratioP1;P1;durP2;ratioP2;P2;SDS_P1;SDS_P2;PMS_P1;PMS_P2;Temp;Humidity;BMP_temperature;BMP_pressure;BME280_temperature;BME280_humidity;BME280_pressure;Samples;Min_cycle;Max_cycle;Signal;HPM_P1;HPM_P2
2023/08/29 00:01:30;;;;;;;18.10;15.90;;;;;;;25.89;61.73;98736.56;107250;1257;60989;-39
2023/08/29 00:03:58;;;;;;;18.30;16.20;;;;;;;25.87;61.77;98739.29;107306;1256;60444;-39
2023/08/29 00:06:26;;;;;;;18.90;17.00;;;;;;;25.84;61.77;98735.16;107253;1257;73885;-39
2023/08/29 00:08:53;;;;;;;19.60;17.50;;;;;;;25.83;61.84;98737.30;107320;1256;66586;-39
2023/08/29 00:11:21;;;;;;;18.60;16.50;;;;;;;25.80;61.73;98733.22;107246;1260;72657;-39
2023/08/29 00:13:48;;;;;;;20.70;17.50;;;;;;;25.76;61.93;98737.27;107251;1257;60299;-39
2023/08/29 00:16:16;;;;;;;21.40;16.80;;;;;;;25.68;61.80;98736.63;107294;1257;60321;-39
2023/08/29 00:18:44;;;;;;;19.60;16.70;;;;;;;25.63;62.10;98737.30;107241;1257;73868;-39
2023/08/29 00:21:12;;;;;;;18.60;15.80;;;;;;;25.60;62.13;98732.69;107359;1258;66606;-39
2023/08/29 00:23:40;;;;;;;18.30;16.40;;;;;;;25.55;62.33;98731.13;107260;1256;71387;-39
2023/08/29 00:26:08;;;;;;;20.10;17.70;;;;;;;25.49;62.49;98730.59;107279;1256;60453;-39
2023/08/29 00:28:35;;;;;;;20.30;17.10;;;;;;;25.45;62.88;98727.83;107286;1256;60427;-39
2023/08/29 00:31:03;;;;;;;20.50;17.70;;;;;;;25.37;62.87;98723.61;107115;1257;74288;-39
2023/08/29 00:33:30;;;;;;;19.80;17.80;;;;;;;25.29;63.14;98724.75;107130;1263;67918;-39
2023/08/29 00:35:58;;;;;;;20.60;17.70;;;;;;;25.22;63.57;98722.52;107265;1257;71368;-39
2023/08/29 00:38:26;;;;;;;18.30;16.50;;;;;;;25.18;63.88;98727.05;107229;1257;60496;-39
2023/08/29 00:40:53;;;;;;;19.00;16.90;;;;;;;25.16;63.94;98726.85;107243;1257;60396;-39
2023/08/29 00:43:21;;;;;;;18.50;16.70;;;;;;;25.11;63.99;98725.84;107098;1257;73901;-39
2023/08/29 00:45:49;;;;;;;18.30;16.50;;;;;;;25.04;64.25;98724.29;107121;1257;67621;-39
2023/08/29 00:48:16;;;;;;;20.10;16.90;;;;;;;24.98;64.39;98720.33;107065;1257;72730;-39
2023/08/29 00:50:45;;;;;;;23.90;17.50;;;;;;;24.92;64.56;98727.10;107096;1256;60412;-39
2023/08/29 00:53:13;;;;;;;20.00;17.50;;;;;;;24.85;64.87;98727.34;107114;1257;60402;-38
2023/08/29 00:55:40;;;;;;;19.50;17.00;;;;;;;24.80;65.19;98726.19;107276;1257;72574;-39
2023/08/29 00:58:09;;;;;;;17.90;15.90;;;;;;;24.79;65.56;98722.59;107258;1261;67575;-38
2023/08/29 01:00:38;;;;;;;18.40;16.20;;;;;;;24.79;65.63;98719.41;107210;1257;71529;-39
2023/08/29 01:03:06;;;;;;;18.70;16.50;;;;;;;24.76;66.09;98717.89;107129;1256;60504;-39
2023/08/29 01:05:34;;;;;;;20.10;17.90;;;;;;;24.73;66.29;98715.21;107274;1257;60462;-39
2023/08/29 01:08:02;;;;;;;19.60;17.70;;;;;;;24.69;66.45;98716.79;107273;1257;73874;-38
2023/08/29 01:11:00;;;;;;;20.90;17.40;;;;;;;24.66;66.74;98716.87;107162;1257;67633;-39
2023/08/29 01:13:39;;;;;;;17.00;15.30;;;;;;;24.67;66.95;98715.23;107084;1257;72728;-38
2023/08/29 01:16:08;;;;;;;18.40;16.40;;;;;;;24.71;67.34;98716.96;107084;1259;60575;-38
2023/08/29 01:18:39;;;;;;;20.10;17.30;;;;;;;24.71;67.43;98717.83;107263;1257;60388;-39
2023/08/29 01:21:35;;;;;;;19.40;17.30;;;;;;;24.71;67.62;98717.49;107129;1256;73977;-39
2023/08/29 01:24:10;;;;;;;20.00;17.80;;;;;;;24.73;67.69;98715.30;107112;1257;66381;-39
2023/08/29 01:26:37;;;;;;;21.20;16.90;;;;;;;24.72;67.66;98717.23;107265;1261;72660;-38
2023/08/29 01:29:05;;;;;;;17.60;15.80;;;;;;;24.75;67.61;98716.70;107078;1257;61682;-39
2023/08/29 01:31:35;;;;;;;18.70;16.60;;;;;;;24.79;67.59;98720.27;107212;1256;60302;-38
2023/08/29 01:34:03;;;;;;;19.30;17.30;;;;;;;24.81;67.63;98716.08;107249;1257;72617;-38
2023/08/29 01:36:38;;;;;;;21.60;17.30;;;;;;;24.83;67.67;98714.17;107116;1257;66309;-38
2023/08/29 01:39:06;;;;;;;23.20;17.10;;;;;;;24.82;67.70;98711.18;107287;1257;71414;-39
2023/08/29 01:41:34;;;;;;;19.20;16.90;;;;;;;24.84;67.88;98714.89;107263;1257;61690;-39
2023/08/29 01:44:02;;;;;;;17.90;15.90;;;;;;;24.88;67.75;98717.72;107275;1263;59597;-39
2023/08/29 01:46:30;;;;;;;18.70;16.80;;;;;;;24.94;67.63;98716.61;107293;1257;72567;-39
2023/08/29 01:48:57;;;;;;;19.30;17.30;;;;;;;24.96;67.54;98717.62;107298;1257;67753;-39
2023/08/29 01:51:25;;;;;;;23.10;18.30;;;;;;;24.98;67.58;98714.27;107107;1262;72731;-39
2023/08/29 01:53:53;;;;;;;21.10;17.90;;;;;;;25.00;67.56;98712.05;107313;1256;59677;-38
2023/08/29 01:56:21;;;;;;;19.40;17.40;;;;;;;24.99;67.54;98715.00;107059;1257;60454;-38
2023/08/29 01:58:48;;;;;;;19.70;15.60;;;;;;;25.02;67.46;98720.20;107056;1257;73893;-38
2023/08/29 02:01:16;;;;;;;18.60;16.70;;;;;;;25.06;67.39;98723.56;107090;1257;67590;-39
2023/08/29 02:03:53;;;;;;;20.10;17.80;;;;;;;25.06;67.35;98725.64;107237;1257;72634;-38
2023/08/29 02:06:21;;;;;;;20.50;18.30;;;;;;;25.05;67.38;98728.68;107047;1257;60325;-38
2023/08/29 02:08:48;;;;;;;21.00;18.70;;;;;;;25.02;67.44;98731.26;107266;1256;60305;-38
2023/08/29 02:11:16;;;;;;;20.10;16.70;;;;;;;24.99;67.47;98731.52;107308;1257;73975;-38
2023/08/29 02:13:44;;;;;;;20.30;17.00;;;;;;;25.00;67.53;98737.61;107302;1257;67601;-39
2023/08/29 02:16:11;;;;;;;19.00;17.10;;;;;;;25.03;67.51;98737.96;107288;1257;71400;-39
2023/08/29 02:18:39;;;;;;;24.30;18.80;;;;;;;25.02;67.56;98739.27;107100;1257;60327;-39
2023/08/29 02:21:06;;;;;;;22.20;18.10;;;;;;;24.99;67.55;98739.10;107202;1257;59598;-39
2023/08/29 02:23:34;;;;;;;21.40;19.20;;;;;;;24.97;67.52;98731.91;107012;1257;73919;-38
2023/08/29 02:26:05;;;;;;;20.60;18.30;;;;;;;24.95;67.55;98734.63;107232;1263;66362;-38
2023/08/29 02:28:35;;;;;;;22.20;18.00;;;;;;;24.96;67.72;98731.67;107200;1257;72687;-38
2023/08/29 02:31:06;;;;;;;20.30;18.10;;;;;;;24.97;67.66;98728.27;107177;1257;59418;-39
2023/08/29 02:33:37;;;;;;;20.70;18.70;;;;;;;24.96;67.63;98729.60;107198;1257;60546;-39
2023/08/29 02:36:05;;;;;;;21.30;19.20;;;;;;;24.93;67.65;98737.05;107232;1257;73856;-39
2023/08/29 02:38:33;;;;;;;21.50;19.20;;;;;;;24.89;67.76;98739.88;107227;1257;66375;-39
2023/08/29 02:41:01;;;;;;;22.20;19.10;;;;;;;24.84;67.97;98739.20;107086;1263;72447;-39
2023/08/29 02:43:29;;;;;;;20.60;18.20;;;;;;;24.83;67.99;98740.14;107206;1257;61675;-38
2023/08/29 02:45:57;;;;;;;22.80;18.00;;;;;;;24.83;68.00;98739.58;107206;1262;60231;-38
2023/08/29 02:48:27;;;;;;;26.00;19.00;;;;;;;24.81;68.06;98740.88;107310;1257;73848;-39
2023/08/29 02:50:54;;;;;;;22.10;19.50;;;;;;;24.77;68.06;98745.09;107200;1257;67560;-38
2023/08/29 02:53:22;;;;;;;21.60;19.40;;;;;;;24.73;68.14;98746.71;107223;1257;72683;-39
2023/08/29 02:55:50;;;;;;;20.50;18.10;;;;;;;24.69;68.34;98746.17;107185;1257;60967;-39
2023/08/29 02:58:18;;;;;;;20.90;16.70;;;;;;;24.67;68.22;98747.36;107026;1263;60525;-39
2023/08/29 03:00:47;;;;;;;22.00;18.10;;;;;;;24.66;68.30;98747.58;107282;1257;73883;-39
2023/08/29 03:03:16;;;;;;;21.00;18.80;;;;;;;24.62;68.46;98746.84;107128;1257;67579;-40
2023/08/29 03:05:56;;;;;;;21.10;19.00;;;;;;;24.58;68.59;98742.80;107272;1257;72443;-39
2023/08/29 03:08:24;;;;;;;22.10;19.80;;;;;;;24.53;68.73;98739.01;107234;1259;60434;-39
2023/08/29 03:10:52;;;;;;;21.90;19.30;;;;;;;24.47;68.92;98736.30;107249;1257;60459;-38
2023/08/29 03:13:21;;;;;;;20.00;17.90;;;;;;;24.47;68.92;98743.74;107223;1257;73821;-38
2023/08/29 03:15:49;;;;;;;20.20;18.20;;;;;;;24.48;68.98;98746.95;107056;1257;67588;-39
2023/08/29 03:18:17;;;;;;;21.30;19.10;;;;;;;24.45;69.07;98747.12;107173;1257;73273;-39
2023/08/29 03:20:44;;;;;;;21.00;18.80;;;;;;;24.41;69.26;98751.06;106992;1257;59302;-39
2023/08/29 03:23:12;;;;;;;21.90;19.30;;;;;;;24.37;69.39;98752.28;107194;1259;60347;-39
2023/08/29 03:25:40;;;;;;;21.60;18.90;;;;;;;24.34;69.55;98756.48;107059;1257;74278;-38
2023/08/29 03:28:09;;;;;;;21.90;18.30;;;;;;;24.34;69.69;98756.08;107235;1257;66304;-39
2023/08/29 03:30:36;;;;;;;21.00;18.80;;;;;;;24.35;69.49;98756.25;107148;1256;72711;-38
2023/08/29 03:33:05;;;;;;;20.90;18.90;;;;;;;24.34;69.58;98758.89;107157;1257;60446;-38
2023/08/29 03:35:33;;;;;;;20.20;18.10;;;;;;;24.31;69.70;98759.57;107270;1257;60223;-39
2023/08/29 03:38:00;;;;;;;22.10;19.60;;;;;;;24.28;69.79;98761.61;107199;1257;73840;-38
2023/08/29 03:40:28;;;;;;;20.00;17.80;;;;;;;24.24;70.09;98758.70;107240;1261;66296;-38
2023/08/29 03:42:55;;;;;;;19.70;16.80;;;;;;;24.26;70.35;98759.96;107202;1258;72697;-39
2023/08/29 03:45:23;;;;;;;20.10;18.00;;;;;;;24.28;70.44;98756.29;107204;1257;60430;-38
2023/08/29 03:47:51;;;;;;;19.10;17.20;;;;;;;24.28;70.56;98753.52;107307;1257;60327;-38
2023/08/29 03:50:20;;;;;;;21.20;18.80;;;;;;;24.27;70.63;98748.73;107039;1257;72756;-38
2023/08/29 03:52:49;;;;;;;20.10;18.10;;;;;;;24.25;70.62;98748.45;107239;1257;67237;-38
2023/08/29 03:55:16;;;;;;;20.20;17.80;;;;;;;24.23;70.56;98745.13;107217;1257;71501;-38
2023/08/29 03:57:44;;;;;;;19.80;17.80;;;;;;;24.26;70.66;98743.95;106993;1260;62221;-39
2023/08/29 04:00:13;;;;;;;20.00;18.00;;;;;;;24.30;70.52;98750.49;107163;1258;60364;-39
2023/08/29 04:02:42;;;;;;;21.50;19.30;;;;;;;24.31;70.52;98758.67;107091;1257;73837;-38
2023/08/29 04:05:12;;;;;;;22.20;19.70;;;;;;;24.31;70.47;98764.05;107196;1257;67904;-39
2023/08/29 04:07:41;;;;;;;21.90;19.60;;;;;;;24.32;70.55;98763.77;107175;1258;71515;-38
2023/08/29 04:10:09;;;;;;;20.40;18.40;;;;;;;24.34;70.84;98771.79;107189;1257;61689;-38
2023/08/29 04:12:36;;;;;;;21.10;18.80;;;;;;;24.38;71.02;98774.56;107065;1257;58980;-39
2023/08/29 04:15:05;;;;;;;20.70;18.50;;;;;;;24.44;71.01;98770.98;107238;1262;73109;-39
2023/08/29 04:17:33;;;;;;;22.10;18.20;;;;;;;24.49;71.01;98774.07;107269;1257;66418;-39
2023/08/29 04:20:00;;;;;;;21.60;19.20;;;;;;;24.52;71.05;98775.82;107141;1262;71938;-39
2023/08/29 04:22:28;;;;;;;22.20;19.20;;;;;;;24.57;71.00;98780.52;107147;1260;60510;-39
2023/08/29 04:24:55;;;;;;;22.10;19.50;;;;;;;24.61;71.08;98784.14;107278;1258;60795;-39
2023/08/29 04:27:23;;;;;;;20.30;17.90;;;;;;;24.70;70.79;98785.66;107230;1261;73471;-39
2023/08/29 04:29:51;;;;;;;23.80;19.40;;;;;;;24.78;70.55;98779.02;107251;1258;66321;-39
2023/08/29 04:32:18;;;;;;;21.90;19.60;;;;;;;24.84;70.27;98779.06;107157;1262;72701;-39
2023/08/29 04:37:46;;;;;;;21.60;19.30;;;;;;;24.94;70.23;98779.38;104213;1290;601212;-39
2023/08/29 04:40:17;;;;;;;24.70;19.30;;;;;;;25.00;69.90;98780.89;106676;1266;61286;-39
2023/08/29 04:42:45;;;;;;;21.90;19.50;;;;;;;25.09;69.66;98781.08;106728;1266;60147;-39
2023/08/29 04:45:13;;;;;;;21.50;19.50;;;;;;;25.14;69.39;98778.00;106695;1266;71096;-39
2023/08/29 04:47:41;;;;;;;22.10;19.90;;;;;;;25.18;69.41;98774.45;106581;1265;67608;-39
2023/08/29 04:50:08;;;;;;;22.60;20.30;;;;;;;25.22;69.12;98780.90;106554;1266;72706;-39
2023/08/29 04:52:36;;;;;;;24.40;21.80;;;;;;;25.27;69.04;98778.16;106655;1267;61022;-39
2023/08/29 04:55:05;;;;;;;23.80;20.70;;;;;;;25.32;68.68;98777.38;106843;1263;59234;-39
2023/08/29 04:57:33;;;;;;;23.50;20.20;;;;;;;25.38;68.63;98773.46;106891;1262;70969;-39
2023/08/29 05:00:01;;;;;;;28.70;21.40;;;;;;;25.42;68.43;98779.44;106748;1263;66305;-39
2023/08/29 05:02:29;;;;;;;23.10;20.70;;;;;;;25.46;68.40;98781.79;106813;1264;71415;-41
2023/08/29 05:04:57;;;;;;;23.40;20.60;;;;;;;25.49;68.57;98785.49;106854;1263;59376;-40
2023/08/29 05:07:25;;;;;;;24.00;20.80;;;;;;;25.51;68.54;98779.80;106810;1263;59498;-38
2023/08/29 05:09:54;;;;;;;23.40;20.00;;;;;;;25.64;68.32;98786.02;106808;1263;73026;-38
2023/08/29 05:12:22;;;;;;;26.50;20.50;;;;;;;25.74;67.94;98785.91;106858;1263;66328;-38
2023/08/29 05:14:53;;;;;;;23.30;20.60;;;;;;;25.81;67.92;98789.21;106733;1264;71283;-38
2023/08/29 05:17:21;;;;;;;23.20;20.90;;;;;;;25.85;68.02;98786.98;106894;1264;60331;-39
2023/08/29 05:19:50;;;;;;;23.40;20.50;;;;;;;25.91;67.70;98790.48;106812;1263;59666;-39
2023/08/29 05:22:18;;;;;;;26.50;20.00;;;;;;;25.96;67.43;98791.62;106837;1263;73115;-39
2023/08/29 05:24:45;;;;;;;22.60;20.10;;;;;;;26.05;67.25;98790.23;106767;1263;68116;-39
2023/08/29 05:27:14;;;;;;;22.00;19.60;;;;;;;26.14;67.10;98785.98;107017;1260;72685;-39
2023/08/29 05:29:42;;;;;;;21.70;19.60;;;;;;;26.22;67.10;98783.32;107056;1260;59494;-39
2023/08/29 05:32:10;;;;;;;22.40;20.00;;;;;;;26.26;66.98;98789.02;107030;1259;60038;-39
2023/08/29 05:34:37;;;;;;;23.50;21.10;;;;;;;26.32;66.73;98795.22;107022;1260;71716;-39
2023/08/29 05:37:05;;;;;;;24.60;20.30;;;;;;;26.37;67.04;98792.23;107021;1260;67618;-39
2023/08/29 05:39:33;;;;;;;24.00;19.30;;;;;;;26.45;66.71;98791.90;107054;1260;72697;-39
2023/08/29 05:42:00;;;;;;;22.30;19.80;;;;;;;26.54;66.26;98791.98;107026;1259;59650;-39
2023/08/29 05:44:28;;;;;;;22.40;20.10;;;;;;;26.60;66.27;98788.45;106988;1262;59279;-39
2023/08/29 05:46:55;;;;;;;24.10;21.00;;;;;;;26.66;66.11;98789.45;106998;1260;71751;-39
2023/08/29 05:49:23;;;;;;;24.20;21.70;;;;;;;26.72;65.75;98792.16;107008;1260;68099;-39
2023/08/29 05:51:51;;;;;;;26.60;21.60;;;;;;;26.76;65.95;98790.16;107000;1260;72662;-39
2023/08/29 05:54:19;;;;;;;23.10;20.70;;;;;;;26.81;65.78;98784.58;107023;1260;62179;-39
2023/08/29 05:56:47;;;;;;;23.70;20.00;;;;;;;26.91;65.89;98788.08;106951;1260;60031;-39
2023/08/29 05:59:15;;;;;;;23.60;19.80;;;;;;;27.02;65.70;98787.28;107081;1260;72461;-39
2023/08/29 06:01:43;;;;;;;25.70;20.50;;;;;;;27.12;65.36;98780.28;107016;1260;66285;-39
2023/08/29 06:04:10;;;;;;;22.00;19.40;;;;;;;27.22;64.59;98782.90;106998;1260;71399;-39
2023/08/29 06:06:39;;;;;;;25.50;20.50;;;;;;;27.31;64.06;98784.98;106985;1264;60068;-39
2023/08/29 06:09:10;;;;;;;21.60;19.30;;;;;;;27.40;63.86;98786.36;107055;1260;60051;-39
2023/08/29 06:11:38;;;;;;;23.70;19.80;;;;;;;27.48;63.51;98788.65;107022;1260;73123;-39
2023/08/29 06:14:05;;;;;;;24.20;19.20;;;;;;;27.57;63.12;98783.25;107061;1260;67605;-39
2023/08/29 06:16:33;;;;;;;23.00;18.70;;;;;;;27.64;62.34;98789.21;107044;1260;71498;-39
2023/08/29 06:19:00;;;;;;;27.60;18.80;;;;;;;27.76;61.87;98784.73;106998;1259;60048;-39
2023/08/29 06:21:28;;;;;;;21.20;18.60;;;;;;;27.88;61.42;98788.02;107003;1260;59890;-39
2023/08/29 06:23:55;;;;;;;23.40;18.20;;;;;;;27.97;60.92;98779.59;107035;1260;73053;-39
2023/08/29 06:26:23;;;;;;;22.40;18.40;;;;;;;28.05;60.55;98780.84;107101;1260;67554;-39
2023/08/29 06:28:51;;;;;;;23.80;19.30;;;;;;;28.15;60.23;98781.02;107032;1265;72100;-39
2023/08/29 06:31:18;;;;;;;21.30;19.10;;;;;;;28.25;59.72;98778.71;107086;1260;59562;-39
2023/08/29 06:33:46;;;;;;;21.40;19.20;;;;;;;28.34;59.62;98777.63;107050;1260;60059;-40
2023/08/29 06:36:14;;;;;;;22.30;19.20;;;;;;;28.42;59.60;98773.29;107035;1260;73115;-39
2023/08/29 06:38:42;;;;;;;21.90;18.90;;;;;;;28.53;59.13;98773.52;107023;1260;67596;-40
2023/08/29 06:41:10;;;;;;;23.40;18.30;;;;;;;28.63;58.93;98768.27;107044;1260;71681;-40
2023/08/29 06:43:38;;;;;;;24.20;18.10;;;;;;;28.72;58.21;98772.11;107023;1259;60223;-38
2023/08/29 06:46:06;;;;;;;21.40;18.30;;;;;;;28.81;57.84;98770.05;107028;1260;59526;-37
2023/08/29 06:48:33;;;;;;;21.80;17.40;;;;;;;28.92;57.40;98775.85;107057;1259;73050;-37
2023/08/29 06:51:01;;;;;;;18.70;16.70;;;;;;;29.03;56.64;98781.39;107039;1260;68124;-39
2023/08/29 06:53:28;;;;;;;22.70;17.30;;;;;;;29.14;56.08;98785.92;107026;1261;72683;-39
2023/08/29 06:55:56;;;;;;;19.60;17.60;;;;;;;29.24;55.97;98783.23;107045;1260;59617;-39
2023/08/29 06:58:25;;;;;;;19.00;17.10;;;;;;;29.35;55.70;98783.10;107013;1260;60360;-39
2023/08/29 07:00:53;;;;;;;25.00;17.00;;;;;;;29.47;55.45;98781.98;107044;1260;73426;-39
2023/08/29 07:03:21;;;;;;;22.60;18.10;;;;;;;29.59;55.17;98781.73;107031;1260;67101;-39
2023/08/29 07:05:49;;;;;;;21.70;17.60;;;;;;;29.71;55.19;98783.02;107027;1260;72713;-39
2023/08/29 07:08:17;;;;;;;20.30;17.80;;;;;;;29.85;54.42;98783.27;106886;1260;59248;-39
2023/08/29 07:10:45;;;;;;;22.90;17.60;;;;;;;29.98;54.58;98779.63;107026;1260;60019;-39
2023/08/29 07:13:12;;;;;;;18.70;16.60;;;;;;;30.09;53.94;98776.18;107014;1260;72939;-39
2023/08/29 07:15:40;;;;;;;23.40;17.10;;;;;;;30.22;53.46;98778.27;107019;1260;67581;-39
2023/08/29 07:18:09;;;;;;;18.60;16.70;;;;;;;30.35;53.01;98781.45;106984;1260;72725;-39
2023/08/29 07:20:37;;;;;;;17.90;16.20;;;;;;;30.48;52.22;98780.34;107032;1260;60117;-39
2023/08/29 07:23:04;;;;;;;23.30;16.80;;;;;;;30.60;51.53;98781.41;107070;1260;59553;-39
2023/08/29 07:25:39;;;;;;;18.00;16.30;;;;;;;30.68;51.24;98778.20;107035;1259;73530;-39
2023/08/29 07:28:08;;;;;;;18.80;16.80;;;;;;;30.80;50.77;98779.61;107058;1260;66664;-39
2023/08/29 07:30:46;;;;;;;18.30;16.20;;;;;;;30.94;50.51;98783.64;107071;1260;72668;-39
2023/08/29 07:33:14;;;;;;;18.20;16.30;;;;;;;31.06;50.39;98783.23;107029;1265;59526;-39
2023/08/29 07:35:42;;;;;;;19.60;17.50;;;;;;;31.17;50.27;98782.35;107088;1260;59411;-39
2023/08/29 07:38:10;;;;;;;18.20;15.70;;;;;;;31.29;50.23;98779.81;107025;1262;73061;-39
2023/08/29 07:40:39;;;;;;;;;;;;;;;31.42;49.58;98778.98;107040;1260;67689;-39
2023/08/29 07:43:08;;;;;;;18.20;16.00;;;;;;;31.53;49.29;98776.91;106999;1260;72460;-39
2023/08/29 07:45:36;;;;;;;17.80;15.90;;;;;;;31.64;49.00;98782.70;107079;1260;59425;-39
2023/08/29 07:48:04;;;;;;;18.00;16.10;;;;;;;31.76;48.59;98789.95;107048;1260;59833;-39
2023/08/29 07:50:33;;;;;;;19.20;16.00;;;;;;;31.87;48.28;98783.73;107055;1265;73103;-39
2023/08/29 07:53:00;;;;;;;17.40;15.50;;;;;;;31.99;48.17;98779.95;107043;1260;66431;-39
2023/08/29 07:55:28;;;;;;;20.50;16.60;;;;;;;32.11;48.16;98780.95;106993;1260;72664;-39
2023/08/29 07:57:56;;;;;;;16.90;15.10;;;;;;;32.24;47.41;98782.76;107022;1260;59634;-39
2023/08/29 08:00:24;;;;;;;18.20;15.10;;;;;;;32.37;47.02;98785.61;106885;1260;59554;-39
2023/08/29 08:02:52;;;;;;;19.10;14.90;;;;;;;32.52;46.71;98783.45;107060;1260;71859;-39
2023/08/29 08:05:20;;;;;;;17.50;15.00;;;;;;;32.67;46.14;98784.62;107037;1260;67929;-39
2023/08/29 08:07:48;;;;;;;18.00;14.60;;;;;;;32.78;44.85;98781.19;107016;1261;71959;-39
2023/08/29 08:10:17;;;;;;;14.90;13.40;;;;;;;32.90;44.13;98780.61;107015;1260;60075;-39
2023/08/29 08:12:49;;;;;;;15.20;13.60;;;;;;;33.00;43.98;98780.20;107055;1260;60447;-39
2023/08/29 08:15:16;;;;;;;15.90;13.00;;;;;;;33.10;43.05;98779.94;107037;1260;73023;-39
2023/08/29 08:17:44;;;;;;;16.80;12.80;;;;;;;33.20;42.78;98779.40;107026;1260;67579;-39
2023/08/29 08:20:12;;;;;;;15.60;12.40;;;;;;;33.30;42.17;98774.42;106978;1260;72664;-40
2023/08/29 08:22:40;;;;;;;13.60;12.30;;;;;;;33.39;41.20;98768.44;106999;1260;59654;-39
2023/08/29 08:25:09;;;;;;;15.20;12.70;;;;;;;33.47;41.20;98768.61;107030;1260;60045;-39
2023/08/29 08:27:40;;;;;;;16.90;12.60;;;;;;;33.54;41.34;98765.54;107079;1260;73496;-40
2023/08/29 08:30:08;;;;;;;17.40;12.50;;;;;;;33.61;41.06;98768.77;107023;1260;67573;-40
2023/08/29 08:32:36;;;;;;;13.80;11.70;;;;;;;33.68;40.79;98769.21;107057;1259;72690;-40
2023/08/29 08:35:05;;;;;;;15.20;12.30;;;;;;;33.76;40.12;98767.23;107037;1260;60497;-39
2023/08/29 08:37:34;;;;;;;13.50;11.80;;;;;;;33.81;39.79;98764.02;107019;1260;60485;-39
2023/08/29 08:40:09;;;;;;;13.60;12.10;;;;;;;33.85;39.61;98763.36;107011;1260;73429;-39
2023/08/29 08:42:39;;;;;;;15.40;11.70;;;;;;;33.87;39.45;98762.77;107019;1260;67906;-39
2023/08/29 08:45:09;;;;;;;14.00;11.20;;;;;;;33.84;39.17;98761.95;107047;1261;72458;-39
2023/08/29 08:47:37;;;;;;;14.80;11.80;;;;;;;33.79;39.14;98760.83;107014;1260;59707;-39
2023/08/29 08:50:08;;;;;;;14.80;11.00;;;;;;;33.72;38.71;98765.73;107030;1260;60963;-39
2023/08/29 08:52:38;;;;;;;12.40;10.80;;;;;;;33.65;38.47;98764.43;107018;1260;73863;-39
2023/08/29 08:55:07;;;;;;;12.80;11.20;;;;;;;33.57;38.95;98756.55;107036;1260;67616;-39
2023/08/29 08:57:35;;;;;;;14.40;11.20;;;;;;;33.52;39.15;98759.48;107043;1259;71434;-39
2023/08/29 09:00:06;;;;;;;15.70;11.10;;;;;;;33.50;38.77;98759.64;106867;1267;60435;-39
2023/08/29 09:02:34;;;;;;;11.60;10.30;;;;;;;33.52;38.69;98759.59;107299;1256;60351;-39
2023/08/29 09:05:01;;;;;;;13.80;10.30;;;;;;;33.55;38.05;98761.44;107208;1256;72576;-39
2023/08/29 09:07:30;;;;;;;13.60;10.60;;;;;;;33.58;37.97;98758.13;107327;1255;67654;-39
2023/08/29 09:10:11;;;;;;;13.40;10.90;;;;;;;33.60;37.57;98762.79;107199;1256;71412;-39
2023/08/29 09:12:50;;;;;;;12.60;10.40;;;;;;;33.58;37.87;98763.34;107242;1255;60312;-39
2023/08/29 09:15:19;;;;;;;11.90;10.40;;;;;;;33.58;37.40;98760.33;107300;1255;60433;-39
2023/08/29 09:17:50;;;;;;;;;;;;;;;33.57;37.54;98760.84;107296;1256;72552;-39
2023/08/29 09:20:19;;;;;;;11.50;9.40;;;;;;;33.56;37.64;98762.75;107273;1256;66626;-39
2023/08/29 09:22:47;;;;;;;13.80;9.70;;;;;;;33.54;37.22;98763.29;107273;1256;72701;-39
2023/08/29 09:25:15;;;;;;;13.00;9.90;;;;;;;33.55;37.23;98762.81;107235;1255;60481;-39
2023/08/29 09:27:47;;;;;;;15.00;10.80;;;;;;;33.59;37.04;98763.69;107266;1255;60462;-39
2023/08/29 09:30:16;;;;;;;13.00;10.50;;;;;;;33.62;36.96;98763.64;107278;1257;72625;-39
2023/08/29 09:32:45;;;;;;;15.20;10.50;;;;;;;33.66;36.60;98758.54;107290;1256;67579;-39
2023/08/29 09:35:14;;;;;;;12.40;10.30;;;;;;;33.70;36.26;98757.84;107267;1256;72818;-39
2023/08/29 09:37:46;;;;;;;12.60;10.40;;;;;;;33.74;36.71;98754.00;107231;1255;60410;-39
2023/08/29 09:40:17;;;;;;;13.40;10.40;;;;;;;33.83;35.90;98754.89;107261;1256;60302;-39
2023/08/29 09:43:05;;;;;;;15.10;11.00;;;;;;;33.93;35.76;98755.88;107237;1255;73885;-39
2023/08/29 09:45:33;;;;;;;12.40;10.40;;;;;;;34.03;35.56;98751.78;107272;1257;67671;-39
2023/08/29 09:48:10;;;;;;;12.30;10.40;;;;;;;34.17;35.37;98745.80;107251;1255;72695;-39
2023/08/29 09:50:39;;;;;;;12.30;10.00;;;;;;;34.31;35.22;98750.61;107254;1256;60784;-39
2023/08/29 09:53:06;;;;;;;17.00;11.00;;;;;;;34.49;34.70;98753.84;107259;1255;60457;-39
2023/08/29 09:55:39;;;;;;;14.80;10.70;;;;;;;34.71;34.23;98751.23;107296;1256;73874;-39
2023/08/29 09:58:07;;;;;;;13.90;9.60;;;;;;;34.97;33.94;98749.74;107243;1256;67850;-39
2023/08/29 10:00:36;;;;;;;13.90;10.70;;;;;;;35.23;33.81;98747.21;107226;1256;72704;-39
2023/08/29 10:03:09;;;;;;;12.60;10.50;;;;;;;35.49;33.64;98744.21;107287;1256;60336;-39
2023/08/29 10:05:39;;;;;;;14.70;10.40;;;;;;;35.75;32.76;98741.20;107271;1256;60269;-40
2023/08/29 10:08:16;;;;;;;12.50;9.70;;;;;;;35.99;32.00;98734.60;107183;1256;73837;-40
2023/08/29 10:10:44;;;;;;;18.00;10.60;;;;;;;36.16;31.83;98735.46;107289;1260;66660;-40
2023/08/29 10:13:11;;;;;;;12.10;10.10;;;;;;;36.28;31.53;98733.99;107233;1256;72697;-40
2023/08/29 10:15:41;;;;;;;15.40;10.20;;;;;;;36.32;31.56;98734.05;107229;1256;60349;-40
2023/08/29 10:18:09;;;;;;;;;;;;;;;36.33;31.50;98734.60;107348;1256;60518;-40
2023/08/29 10:20:37;;;;;;;13.00;9.60;;;;;;;36.37;31.06;98732.75;107232;1255;74014;-41
2023/08/29 10:23:06;;;;;;;13.20;10.50;;;;;;;36.42;30.83;98731.48;107054;1256;66615;-39
2023/08/29 10:25:35;;;;;;;15.50;10.60;;;;;;;36.50;30.85;98733.13;107238;1257;72664;-40
2023/08/29 10:28:03;;;;;;;13.80;10.30;;;;;;;36.59;30.79;98735.88;107293;1255;60425;-40
2023/08/29 10:30:32;;;;;;;12.80;10.20;;;;;;;36.68;31.13;98731.97;107359;1256;60978;-40
2023/08/29 10:33:01;;;;;;;15.00;11.00;;;;;;;36.76;30.66;98730.06;107220;1256;73820;-40
2023/08/29 10:35:31;;;;;;;12.30;10.10;;;;;;;36.77;30.23;98729.89;107282;1255;67610;-40
2023/08/29 10:38:02;;;;;;;11.00;9.70;;;;;;;36.76;30.06;98731.64;107319;1256;71568;-39
2023/08/29 10:40:36;;;;;;;14.00;10.30;;;;;;;36.77;29.90;98732.10;107187;1256;60552;-40
2023/08/29 10:43:04;;;;;;;12.00;10.10;;;;;;;36.77;29.93;98734.09;107279;1257;60293;-40
2023/08/29 10:45:53;;;;;;;12.60;10.30;;;;;;;36.76;29.86;98733.56;107174;1256;73853;-40
2023/08/29 10:48:25;;;;;;;13.40;10.60;;;;;;;36.76;29.88;98736.02;107273;1256;67570;-40
2023/08/29 10:51:12;;;;;;;11.90;9.50;;;;;;;36.78;29.92;98733.20;107296;1256;72731;-40
2023/08/29 10:53:51;;;;;;;13.50;9.90;;;;;;;36.79;29.93;98733.62;107280;1260;60569;-40
2023/08/29 10:56:24;;;;;;;13.00;9.50;;;;;;;36.81;29.51;98731.78;107324;1256;59596;-40
2023/08/29 10:58:55;;;;;;;13.60;10.00;;;;;;;36.77;29.26;98733.23;107259;1260;73868;-40
2023/08/29 11:01:36;;;;;;;15.40;10.20;;;;;;;36.71;29.83;98737.04;107287;1256;67560;-40
2023/08/29 11:04:16;;;;;;;13.80;9.80;;;;;;;36.66;29.71;98736.52;107241;1257;72729;-40
2023/08/29 11:06:53;;;;;;;14.90;9.80;;;;;;;36.64;29.92;98738.05;107247;1256;60380;-40
2023/08/29 11:09:22;;;;;;;13.10;10.40;;;;;;;36.73;29.74;98732.87;107268;1260;60336;-40
2023/08/29 11:12:10;;;;;;;12.20;10.40;;;;;;;36.92;29.14;98731.98;107306;1256;73999;-40
2023/08/29 11:14:51;;;;;;;18.90;11.80;;;;;;;37.25;29.12;98731.02;107301;1256;67614;-40
2023/08/29 11:17:25;;;;;;;13.30;10.30;;;;;;;37.63;28.55;98732.95;107252;1256;72693;-40
2023/08/29 11:19:55;;;;;;;12.70;10.30;;;;;;;37.95;28.33;98735.92;107252;1260;60317;-40
2023/08/29 11:22:25;;;;;;;10.70;9.60;;;;;;;38.19;27.87;98733.67;107267;1256;60450;-40